Time;durP1;ratioP1;P1;durP2;ratioP2;P2;SDS_P1;SDS_P2;PMS_P1;PMS_P2;Temp;Humidity;BMP_temperature;BMP_pressure;BME280_temperature;BME280_humidity;BME280_pressure;Samples;Min_cycle;Max_cycle;Signal;HPM_P1;HPM_P2
2021/04/04 00:03:42;;;;;;;10.90;2.37;;;;;;;;;;10288765;23;20056;-62
2021/04/04 00:08:39;;;;;;;11.90;2.40;;;;;;;;;;10260713;28;20389;-62
2021/04/04 00:13:37;;;;;;;9.73;1.27;;;;;;;;;;10257051;28;20060;-62
2021/04/04 00:18:34;;;;;;;12.27;1.43;;;;;;;;;;10282946;28;20068;-62
2021/04/04 00:23:32;;;;;;;1.27;0.67;;;;;;;;;;10286618;28;20041;-61
2021/04/04 00:28:30;;;;;;;5.47;1.17;;;;;;;;;;10226712;28;20364;-61
2021/04/04 00:33:27;;;;;;;6.27;1.03;;;;;;;;;;10265375;28;20479;-61
2021/04/04 00:38:25;;;;;;;11.87;2.13;;;;;;;;;;10268238;28;20488;-62
2021/04/04 00:43:22;;;;;;;3.13;1.10;;;;;;;;;;10284323;28;20072;-61
2021/04/04 00:48:19;;;;;;;4.60;0.70;;;;;;;;;;10273125;28;20048;-65
2021/04/04 00:53:17;;;;;;;7.33;2.23;;;;;;;;;;10273857;28;20124;-63
2021/04/04 00:58:14;;;;;;;4.17;1.80;;;;;;;;;;10285549;28;20342;-64
2021/04/04 01:03:12;;;;;;;10.33;0.80;;;;;;;;;;10281272;28;20473;-63
2021/04/04 01:08:09;;;;;;;6.90;1.47;;;;;;;;;;10286291;28;20042;-63
2021/04/04 01:13:29;;;;;;;5.67;1.47;;;;;;;;;;10283929;28;20400;-63
2021/04/04 01:18:26;;;;;;;3.88;0.93;;;;;;;;;;10286084;28;20037;-63
2021/04/04 01:23:47;;;;;;;6.50;1.63;;;;;;;;;;10267976;28;20034;-63
2021/04/04 01:28:45;;;;;;;3.28;0.75;;;;;;;;;;10275319;28;20507;-62
2021/04/04 01:33:43;;;;;;;9.80;0.83;;;;;;;;;;10287204;28;20103;-62
2021/04/04 01:38:41;;;;;;;4.55;0.52;;;;;;;;;;10281116;28;20051;-62
2021/04/04 01:43:42;;;;;;;8.40;0.93;;;;;;;;;;10276019;28;20482;-63
2021/04/04 01:48:40;;;;;;;5.65;1.00;;;;;;;;;;10283114;28;20455;-63
2021/04/04 01:53:42;;;;;;;0.70;0.45;;;;;;;;;;10278573;28;20037;-63
2021/04/04 01:58:40;;;;;;;6.97;0.75;;;;;;;;;;10291151;28;20044;-62
2021/04/04 02:03:38;;;;;;;9.68;1.15;;;;;;;;;;10242813;28;20530;-63
2021/04/04 02:08:35;;;;;;;8.47;1.43;;;;;;;;;;10310569;28;20148;-62
2021/04/04 02:13:33;;;;;;;3.67;1.20;;;;;;;;;;10326888;28;20041;-60
2021/04/04 02:18:31;;;;;;;3.40;0.87;;;;;;;;;;10332096;28;20041;-62
2021/04/04 02:23:28;;;;;;;3.70;0.80;;;;;;;;;;10293185;28;20041;-61
2021/04/04 02:28:26;;;;;;;2.80;0.70;;;;;;;;;;10309048;28;20033;-61
2021/04/04 02:33:26;;;;;;;5.78;2.08;;;;;;;;;;10328757;28;20032;-60
2021/04/04 02:38:29;;;;;;;1.63;0.52;;;;;;;;;;10336671;28;20128;-62
2021/04/04 02:43:29;;;;;;;2.17;1.75;;;;;;;;;;10342954;28;20043;-60
2021/04/04 02:48:29;;;;;;;2.05;0.55;;;;;;;;;;10314554;28;20091;-61
2021/04/04 02:53:27;;;;;;;8.30;1.25;;;;;;;;;;10305603;28;20043;-62
2021/04/04 02:58:25;;;;;;;5.85;1.08;;;;;;;;;;10309116;28;20109;-62
2021/04/04 03:03:25;;;;;;;3.67;0.85;;;;;;;;;;10332136;28;20041;-62
2021/04/04 03:08:23;;;;;;;3.13;0.90;;;;;;;;;;10317674;28;20136;-60
2021/04/04 03:13:21;;;;;;;2.87;0.80;;;;;;;;;;10321186;28;20112;-61
2021/04/04 03:18:19;;;;;;;7.13;1.90;;;;;;;;;;10317009;28;20478;-60
2021/04/04 03:23:17;;;;;;;5.27;0.73;;;;;;;;;;10301073;28;20136;-62
2021/04/04 03:28:16;;;;;;;7.07;2.22;;;;;;;;;;10310705;28;20060;-60
2021/04/04 03:33:14;;;;;;;11.05;1.42;;;;;;;;;;10322892;28;20574;-60
2021/04/04 03:38:13;;;;;;;4.28;0.68;;;;;;;;;;10320758;28;20127;-62
2021/04/04 03:43:15;;;;;;;6.63;1.10;;;;;;;;;;10325359;28;20133;-61
2021/04/04 03:48:12;;;;;;;3.10;0.65;;;;;;;;;;10313469;28;20048;-62
2021/04/04 03:53:10;;;;;;;2.63;0.80;;;;;;;;;;10321525;28;20377;-62
2021/04/04 03:58:09;;;;;;;4.82;1.02;;;;;;;;;;10328788;28;20045;-63
2021/04/04 04:03:07;;;;;;;3.72;1.30;;;;;;;;;;10326636;28;20466;-62
2021/04/04 04:08:04;;;;;;;2.47;0.85;;;;;;;;;;10332239;28;20043;-62
2021/04/04 04:13:02;;;;;;;5.63;1.20;;;;;;;;;;10309717;28;20034;-62
2021/04/04 04:18:00;;;;;;;2.70;1.23;;;;;;;;;;10320851;28;20052;-64
2021/04/04 04:22:58;;;;;;;2.57;1.00;;;;;;;;;;10307980;28;20086;-61
2021/04/04 04:27:56;;;;;;;8.32;1.73;;;;;;;;;;10322602;28;20123;-61
2021/04/04 04:32:57;;;;;;;7.38;2.05;;;;;;;;;;10336253;28;20123;-63
2021/04/04 04:37:55;;;;;;;6.45;1.73;;;;;;;;;;10311196;28;20030;-60
2021/04/04 04:42:54;;;;;;;3.37;1.97;;;;;;;;;;10321204;28;20035;-60
2021/04/04 04:47:53;;;;;;;7.60;3.10;;;;;;;;;;10318456;28;20272;-61
2021/04/04 04:52:51;;;;;;;7.10;1.73;;;;;;;;;;10318655;28;20071;-61
2021/04/04 04:57:49;;;;;;;4.03;1.10;;;;;;;;;;10315612;28;20464;-61
2021/04/04 05:02:46;;;;;;;2.67;1.70;;;;;;;;;;10308816;28;20315;-61
2021/04/04 05:07:44;;;;;;;4.67;2.27;;;;;;;;;;10325370;28;20116;-60
2021/04/04 05:12:43;;;;;;;5.28;1.98;;;;;;;;;;10311289;28;20033;-63
2021/04/04 05:17:40;;;;;;;8.98;2.13;;;;;;;;;;10329760;28;20388;-62
2021/04/04 05:22:38;;;;;;;6.40;2.47;;;;;;;;;;10317629;28;20059;-60
2021/04/04 05:27:36;;;;;;;3.55;2.22;;;;;;;;;;10323761;28;20576;-62
2021/04/04 05:32:33;;;;;;;5.60;2.40;;;;;;;;;;10325006;28;20449;-61
2021/04/04 05:37:31;;;;;;;5.20;2.77;;;;;;;;;;10330415;28;20033;-61
2021/04/04 05:42:31;;;;;;;7.70;2.30;;;;;;;;;;10331126;28;20044;-62
2021/04/04 05:47:42;;;;;;;10.52;1.90;;;;;;;;;;10321304;28;20117;-63
2021/04/04 05:52:51;;;;;;;0.82;0.82;;;;;;;;;;10320047;28;20098;-60
2021/04/04 05:57:48;;;;;;;;;;;;;;;;;;10319523;28;20033;-63
2021/04/04 06:02:53;;;;;;;5.38;1.90;;;;;;;;;;10315338;28;19924;-62
2021/04/04 06:07:53;;;;;;;12.68;3.58;;;;;;;;;;10326965;28;20037;-60
2021/04/04 06:13:09;;;;;;;11.50;2.83;;;;;;;;;;10328587;28;20040;-63
2021/04/04 06:18:19;;;;;;;10.70;2.67;;;;;;;;;;10304809;28;20572;-62
2021/04/04 06:23:17;;;;;;;9.27;2.95;;;;;;;;;;10306657;28;20483;-62
2021/04/04 06:28:15;;;;;;;6.05;1.73;;;;;;;;;;10315048;28;20050;-63
2021/04/04 06:33:25;;;;;;;10.20;1.97;;;;;;;;;;10321740;28;20128;-63
2021/04/04 06:38:41;;;;;;;9.00;2.00;;;;;;;;;;10299827;28;20098;-64
2021/04/04 06:43:45;;;;;;;6.63;2.35;;;;;;;;;;10319535;28;20118;-63
2021/04/04 06:48:49;;;;;;;8.75;2.08;;;;;;;;;;10296110;28;20132;-63
2021/04/04 06:54:00;;;;;;;7.15;1.77;;;;;;;;;;10308545;28;20522;-63
2021/04/04 06:58:57;;;;;;;8.55;2.08;;;;;;;;;;10302855;28;20399;-63
2021/04/04 07:04:04;;;;;;;3.83;1.40;;;;;;;;;;10284714;28;20041;-61
2021/04/04 07:09:16;;;;;;;3.38;1.58;;;;;;;;;;10285334;28;20040;-60
2021/04/04 07:14:32;;;;;;;4.85;1.45;;;;;;;;;;10326309;28;20672;-60
2021/04/04 07:19:32;;;;;;;4.78;1.30;;;;;;;;;;10311266;28;20499;-60
2021/04/04 07:24:30;;;;;;;4.25;1.33;;;;;;;;;;10283274;28;20045;-62
2021/04/04 07:29:50;;;;;;;2.03;1.40;;;;;;;;;;10311039;28;20037;-63
2021/04/04 07:34:51;;;;;;;2.15;0.88;;;;;;;;;;10292531;28;20487;-63
2021/04/04 07:40:07;;;;;;;7.35;1.20;;;;;;;;;;10329775;28;20982;-63
2021/04/04 07:45:21;;;;;;;1.20;0.68;;;;;;;;;;10305014;28;20461;-64
2021/04/04 07:50:25;;;;;;;7.15;1.60;;;;;;;;;;10322305;28;20036;-65
2021/04/04 07:55:42;;;;;;;1.65;0.90;;;;;;;;;;10306543;28;20862;-62
2021/04/04 08:00:43;;;;;;;1.17;0.77;;;;;;;;;;10323938;28;20044;-63
2021/04/04 08:05:43;;;;;;;4.43;1.58;;;;;;;;;;10287851;28;20060;-61
2021/04/04 08:10:57;;;;;;;5.95;1.17;;;;;;;;;;10307496;28;20495;-62
2021/04/04 08:15:57;;;;;;;3.72;0.90;;;;;;;;;;10327355;28;20041;-63
2021/04/04 08:20:57;;;;;;;4.97;0.95;;;;;;;;;;10299128;28;20036;-63
2021/04/04 08:25:57;;;;;;;4.10;0.68;;;;;;;;;;10309341;28;20123;-64
2021/04/04 08:30:55;;;;;;;6.40;1.27;;;;;;;;;;10322360;28;20044;-63
2021/04/04 08:35:54;;;;;;;7.03;1.23;;;;;;;;;;10318014;28;20402;-64
2021/04/04 08:40:54;;;;;;;3.15;1.13;;;;;;;;;;10335328;28;20507;-64
2021/04/04 08:46:13;;;;;;;4.07;0.80;;;;;;;;;;10298258;28;20029;-62
2021/04/04 08:51:12;;;;;;;4.07;1.38;;;;;;;;;;10328831;28;20091;-61
2021/04/04 08:56:11;;;;;;;2.40;0.90;;;;;;;;;;10312345;28;20450;-61
2021/04/04 09:01:10;;;;;;;2.83;0.90;;;;;;;;;;10306870;28;20034;-60
2021/04/04 09:06:08;;;;;;;2.75;1.05;;;;;;;;;;10325574;28;20132;-59
2021/04/04 09:11:07;;;;;;;3.75;0.80;;;;;;;;;;10326939;28;20091;-59
2021/04/04 09:16:13;;;;;;;4.93;0.90;;;;;;;;;;10315318;28;20047;-60
2021/04/04 09:21:11;;;;;;;5.30;1.63;;;;;;;;;;10304221;28;20025;-62
2021/04/04 09:26:09;;;;;;;6.80;1.40;;;;;;;;;;10315823;28;20095;-62
2021/04/04 09:31:21;;;;;;;3.20;1.08;;;;;;;;;;10322147;28;20041;-59
2021/04/04 09:36:19;;;;;;;7.82;1.25;;;;;;;;;;10308364;28;20045;-63
2021/04/04 09:41:17;;;;;;;2.10;1.10;;;;;;;;;;10301677;28;20078;-60
2021/04/04 09:46:14;;;;;;;5.30;1.27;;;;;;;;;;10313178;28;20128;-62
2021/04/04 09:51:14;;;;;;;9.60;1.03;;;;;;;;;;10295900;28;20793;-58
2021/04/04 09:56:28;;;;;;;3.65;1.15;;;;;;;;;;10334510;28;20128;-59
2021/04/04 10:01:26;;;;;;;4.57;1.88;;;;;;;;;;10299686;28;20117;-60
2021/04/04 10:06:24;;;;;;;2.22;1.48;;;;;;;;;;10319236;28;20106;-61
2021/04/04 10:11:22;;;;;;;4.35;0.88;;;;;;;;;;10307803;28;20040;-62
2021/04/04 10:16:23;;;;;;;11.50;0.83;;;;;;;;;;10310622;28;20124;-61
2021/04/04 10:21:20;;;;;;;1.20;0.82;;;;;;;;;;10318447;28;20087;-62
2021/04/04 10:26:20;;;;;;;6.77;1.10;;;;;;;;;;10300015;28;20091;-61
2021/04/04 10:31:18;;;;;;;6.28;0.73;;;;;;;;;;10306780;28;20574;-62
2021/04/04 10:36:17;;;;;;;4.38;0.98;;;;;;;;;;10318755;28;20102;-62
2021/04/04 10:41:24;;;;;;;3.20;0.75;;;;;;;;;;10316820;28;20116;-61
2021/04/04 10:46:39;;;;;;;8.65;0.90;;;;;;;;;;10315813;28;20033;-60
2021/04/04 10:51:37;;;;;;;4.28;0.40;;;;;;;;;;10315978;28;20614;-61
2021/04/04 10:56:36;;;;;;;3.43;0.97;;;;;;;;;;10314432;28;20033;-63
2021/04/04 11:01:33;;;;;;;3.22;1.77;;;;;;;;;;10296836;28;20039;-61
2021/04/04 11:06:31;;;;;;;1.23;1.13;;;;;;;;;;10316337;28;20047;-62
2021/04/04 11:11:28;;;;;;;2.23;0.60;;;;;;;;;;10320746;28;20033;-61
2021/04/04 11:16:27;;;;;;;2.17;0.67;;;;;;;;;;10305013;28;20048;-61
2021/04/04 11:21:30;;;;;;;3.10;1.00;;;;;;;;;;10301420;28;20414;-62
2021/04/04 11:26:36;;;;;;;7.90;1.05;;;;;;;;;;10306315;28;20514;-62
2021/04/04 11:31:33;;;;;;;3.35;1.52;;;;;;;;;;10301182;28;20080;-60
2021/04/04 11:36:37;;;;;;;2.47;0.80;;;;;;;;;;10303884;28;20485;-61
2021/04/04 11:41:48;;;;;;;1.55;0.65;;;;;;;;;;10328284;28;20126;-62
2021/04/04 11:46:50;;;;;;;4.28;1.13;;;;;;;;;;10307218;28;20033;-61
2021/04/04 11:51:48;;;;;;;1.25;0.73;;;;;;;;;;10290414;28;20028;-62
2021/04/04 11:56:46;;;;;;;5.10;0.50;;;;;;;;;;10304427;28;20036;-61
2021/04/04 12:01:44;;;;;;;;;;;;;;;;;;10332707;28;20048;-62
2021/04/04 12:06:41;;;;;;;6.53;1.08;;;;;;;;;;10285193;28;20394;-62
2021/04/04 12:11:39;;;;;;;11.43;1.30;;;;;;;;;;10305394;28;20041;-62
2021/04/04 12:16:46;;;;;;;2.87;1.50;;;;;;;;;;10333095;28;20033;-63
2021/04/04 12:21:50;;;;;;;3.08;1.50;;;;;;;;;;10334424;28;20495;-64
2021/04/04 12:26:57;;;;;;;3.92;1.98;;;;;;;;;;10317017;28;20033;-64
2021/04/04 12:31:54;;;;;;;5.20;1.98;;;;;;;;;;10322747;28;20036;-64
2021/04/04 12:36:52;;;;;;;4.47;2.60;;;;;;;;;;10310994;28;20032;-64
2021/04/04 12:41:52;;;;;;;6.30;3.43;;;;;;;;;;10331794;28;20086;-62
2021/04/04 12:46:50;;;;;;;7.25;4.72;;;;;;;;;;10321282;28;20040;-61
2021/04/04 12:51:47;;;;;;;12.53;5.63;;;;;;;;;;10326377;28;20044;-62
2021/04/04 12:56:45;;;;;;;6.83;4.70;;;;;;;;;;10312719;28;20033;-62
2021/04/04 13:01:43;;;;;;;2.93;2.23;;;;;;;;;;10320286;28;20040;-61
2021/04/04 13:06:41;;;;;;;2.15;2.00;;;;;;;;;;10323790;28;20040;-61
2021/04/04 13:11:39;;;;;;;4.30;2.10;;;;;;;;;;10312614;28;20044;-60
2021/04/04 13:16:36;;;;;;;3.50;1.95;;;;;;;;;;10324180;28;20084;-61
2021/04/04 13:21:34;;;;;;;4.30;1.73;;;;;;;;;;10331380;28;20033;-61
2021/04/04 13:26:33;;;;;;;2.78;1.38;;;;;;;;;;10318164;28;20526;-61
2021/04/04 13:31:31;;;;;;;3.90;2.47;;;;;;;;;;10321832;28;20068;-63
2021/04/04 13:36:29;;;;;;;15.20;7.18;;;;;;;;;;10324662;28;20075;-62
2021/04/04 13:41:26;;;;;;;20.40;6.83;;;;;;;;;;10305961;28;20033;-60
2021/04/04 13:46:29;;;;;;;8.70;4.60;;;;;;;;;;10317323;28;20057;-60
2021/04/04 13:51:27;;;;;;;12.45;4.65;;;;;;;;;;10317128;28;20407;-60
2021/04/04 13:56:32;;;;;;;8.17;3.10;;;;;;;;;;10310901;28;20037;-60
2021/04/04 14:01:30;;;;;;;4.28;1.83;;;;;;;;;;10312670;28;20037;-58
2021/04/04 14:06:32;;;;;;;6.50;1.93;;;;;;;;;;10295801;28;20044;-57
2021/04/04 14:11:29;;;;;;;5.35;1.02;;;;;;;;;;10302025;28;20331;-60
2021/04/04 14:16:27;;;;;;;4.30;1.37;;;;;;;;;;10322516;28;20033;-57
2021/04/04 14:21:25;;;;;;;1.07;0.47;;;;;;;;;;10317920;28;20072;-57
2021/04/04 14:26:22;;;;;;;1.47;0.90;;;;;;;;;;10308881;28;20597;-61
2021/04/04 14:31:20;;;;;;;2.43;0.90;;;;;;;;;;10317075;28;20798;-60
2021/04/04 14:36:18;;;;;;;4.40;0.80;;;;;;;;;;10316761;28;20041;-61
2021/04/04 14:41:15;;;;;;;6.73;1.10;;;;;;;;;;10316225;28;20124;-61
2021/04/04 14:46:13;;;;;;;0.97;0.73;;;;;;;;;;10283903;28;20116;-60
2021/04/04 14:51:10;;;;;;;1.50;0.60;;;;;;;;;;10310319;28;20098;-60
2021/04/04 14:56:08;;;;;;;0.80;0.57;;;;;;;;;;10320743;28;20443;-61
2021/04/04 15:01:06;;;;;;;1.47;0.63;;;;;;;;;;10321756;28;20096;-61
2021/04/04 15:06:05;;;;;;;1.60;0.70;;;;;;;;;;10319926;28;20041;-59
2021/04/04 15:11:03;;;;;;;1.40;0.88;;;;;;;;;;10312788;28;20056;-61
2021/04/04 15:16:01;;;;;;;7.03;0.88;;;;;;;;;;10326387;28;20040;-61
2021/04/04 15:20:58;;;;;;;4.20;0.90;;;;;;;;;;10316022;28;20486;-60
2021/04/04 15:25:56;;;;;;;3.20;1.43;;;;;;;;;;10320261;28;20029;-59
2021/04/04 15:30:53;;;;;;;1.70;0.97;;;;;;;;;;10317509;28;20069;-59
2021/04/04 15:35:53;;;;;;;2.70;0.60;;;;;;;;;;10310601;28;20033;-62
2021/04/04 15:40:51;;;;;;;2.70;1.10;;;;;;;;;;10313396;28;20033;-59
2021/04/04 15:45:49;;;;;;;4.82;1.30;;;;;;;;;;10316663;28;20041;-59
2021/04/04 15:50:47;;;;;;;4.03;1.20;;;;;;;;;;10295695;28;20033;-58
2021/04/04 15:55:44;;;;;;;5.50;1.48;;;;;;;;;;10323384;28;20102;-59
2021/04/04 16:00:42;;;;;;;11.33;2.33;;;;;;;;;;10331589;28;20040;-56
2021/04/04 16:05:39;;;;;;;4.17;1.30;;;;;;;;;;10324660;28;20510;-61
2021/04/04 16:10:39;;;;;;;4.17;1.83;;;;;;;;;;10326221;28;20663;-61
2021/04/04 16:15:41;;;;;;;6.72;1.55;;;;;;;;;;10329193;28;20510;-60
2021/04/04 16:20:38;;;;;;;4.00;2.00;;;;;;;;;;10329166;28;20041;-62
2021/04/04 16:25:36;;;;;;;6.60;2.07;;;;;;;;;;10322658;28;20041;-55
2021/04/04 16:30:34;;;;;;;7.00;1.43;;;;;;;;;;10322306;28;20071;-62
2021/04/04 16:35:32;;;;;;;5.13;2.45;;;;;;;;;;10296174;28;20075;-60
2021/04/04 16:40:32;;;;;;;13.10;3.50;;;;;;;;;;10295410;28;20699;-62
2021/04/04 16:45:30;;;;;;;15.25;4.78;;;;;;;;;;10317542;28;20034;-61
2021/04/04 16:50:27;;;;;;;6.87;2.73;;;;;;;;;;10317207;28;20029;-60
2021/04/04 16:55:25;;;;;;;10.00;3.40;;;;;;;;;;10315973;28;20116;-60
2021/04/04 17:00:24;;;;;;;13.43;4.10;;;;;;;;;;10328821;28;20033;-63
2021/04/04 17:05:22;;;;;;;11.00;4.00;;;;;;;;;;10294798;28;20037;-60
2021/04/04 17:10:20;;;;;;;6.07;3.35;;;;;;;;;;10328106;28;20109;-62
2021/04/04 17:15:19;;;;;;;8.75;4.05;;;;;;;;;;10319890;28;20410;-59
2021/04/04 17:20:18;;;;;;;13.98;3.25;;;;;;;;;;10327515;28;20147;-60
2021/04/04 17:25:15;;;;;;;;;;;;;;;;;;10311871;28;20442;-58
2021/04/04 17:30:24;;;;;;;6.15;2.50;;;;;;;;;;10315059;28;19919;-63
2021/04/04 17:35:24;;;;;;;7.05;3.03;;;;;;;;;;10331051;28;20186;-60
2021/04/04 17:40:22;;;;;;;10.30;2.97;;;;;;;;;;10329951;28;20120;-61
2021/04/04 17:45:19;;;;;;;6.25;3.42;;;;;;;;;;10322297;28;20120;-59
2021/04/04 17:50:17;;;;;;;7.17;3.27;;;;;;;;;;10282675;28;20029;-61
2021/04/04 17:55:16;;;;;;;3.28;1.95;;;;;;;;;;10311929;28;20044;-63
2021/04/04 18:00:15;;;;;;;6.35;2.80;;;;;;;;;;10318419;28;20710;-61
2021/04/04 18:05:20;;;;;;;11.73;3.25;;;;;;;;;;10303223;28;20083;-60
2021/04/04 18:15:34;;;;;;;7.57;3.67;;;;;;;;;;10319587;28;20063;-61
2021/04/04 18:20:31;;;;;;;7.57;3.77;;;;;;;;;;10306109;28;20610;-59
2021/04/04 18:25:29;;;;;;;12.60;5.03;;;;;;;;;;10304004;28;20044;-60
2021/04/04 18:30:26;;;;;;;16.60;5.53;;;;;;;;;;10310516;28;20033;-57
2021/04/04 18:35:27;;;;;;;11.87;3.63;;;;;;;;;;10311902;28;20037;-61
2021/04/04 18:40:24;;;;;;;10.90;4.25;;;;;;;;;;10300610;28;20037;-60
2021/04/04 18:45:22;;;;;;;8.20;3.27;;;;;;;;;;10302553;28;20030;-60
2021/04/04 18:50:19;;;;;;;12.00;4.67;;;;;;;;;;10304606;28;20128;-61
2021/04/04 18:55:17;;;;;;;19.73;9.67;;;;;;;;;;10295309;28;20503;-59
2021/04/04 19:00:16;;;;;;;23.43;8.47;;;;;;;;;;10293544;28;20488;-60
2021/04/04 19:05:14;;;;;;;7.85;4.63;;;;;;;;;;10298697;28;20037;-61
2021/04/04 19:10:13;;;;;;;10.88;6.18;;;;;;;;;;10298654;28;20044;-61
2021/04/04 19:15:11;;;;;;;13.13;4.95;;;;;;;;;;10293256;28;20742;-61
2021/04/04 19:20:11;;;;;;;6.65;3.45;;;;;;;;;;10310995;28;20127;-62
2021/04/04 19:25:09;;;;;;;12.05;4.35;;;;;;;;;;10310447;28;20037;-60
2021/04/04 19:30:07;;;;;;;25.07;9.93;;;;;;;;;;10311999;28;20040;-60
2021/04/04 19:35:05;;;;;;;16.55;5.95;;;;;;;;;;10309952;28;20279;-60
2021/04/04 19:40:03;;;;;;;15.90;5.70;;;;;;;;;;10313890;28;20029;-61
2021/04/04 19:45:00;;;;;;;14.50;5.53;;;;;;;;;;10304713;28;20036;-60
2021/04/04 19:49:58;;;;;;;11.73;4.53;;;;;;;;;;10316813;28;20033;-60
2021/04/04 19:54:56;;;;;;;17.70;8.20;;;;;;;;;;10308653;28;20410;-63
2021/04/04 19:59:54;;;;;;;16.25;7.18;;;;;;;;;;10317148;28;20036;-61
2021/04/04 20:04:51;;;;;;;9.23;5.37;;;;;;;;;;10308675;28;20443;-59
2021/04/04 20:09:48;;;;;;;13.10;4.47;;;;;;;;;;10311840;28;20437;-61
2021/04/04 20:14:46;;;;;;;13.50;4.33;;;;;;;;;;10301068;28;20124;-60
2021/04/04 20:19:43;;;;;;;13.83;6.73;;;;;;;;;;10305053;28;20041;-60
2021/04/04 20:24:41;;;;;;;15.67;5.57;;;;;;;;;;10306135;28;20033;-61
2021/04/04 20:29:38;;;;;;;11.27;5.03;;;;;;;;;;10298472;28;20071;-60
2021/04/04 20:34:46;;;;;;;9.13;4.30;;;;;;;;;;10307845;28;20427;-63
2021/04/04 20:39:44;;;;;;;11.75;5.35;;;;;;;;;;10312843;28;20120;-61
2021/04/04 20:44:42;;;;;;;11.97;4.10;;;;;;;;;;10301757;28;20460;-61
2021/04/04 20:49:39;;;;;;;22.50;5.18;;;;;;;;;;10335754;28;20037;-60
2021/04/04 20:54:37;;;;;;;13.57;4.63;;;;;;;;;;10328675;28;20044;-63
2021/04/04 20:59:34;;;;;;;13.10;5.13;;;;;;;;;;10326428;28;20045;-61
2021/04/04 21:04:32;;;;;;;7.47;4.10;;;;;;;;;;10314835;28;20043;-62
2021/04/04 21:09:29;;;;;;;14.20;5.47;;;;;;;;;;10318637;28;20103;-58
2021/04/04 21:14:27;;;;;;;9.87;4.77;;;;;;;;;;10324468;28;20029;-63
2021/04/04 21:19:24;;;;;;;12.67;5.13;;;;;;;;;;10314308;28;20044;-60
2021/04/04 21:24:24;;;;;;;14.83;5.60;;;;;;;;;;10307075;28;20044;-62
2021/04/04 21:29:24;;;;;;;12.25;5.32;;;;;;;;;;10288625;28;20037;-60
2021/04/04 21:34:22;;;;;;;11.43;5.03;;;;;;;;;;10322882;28;20037;-60
2021/04/04 21:39:19;;;;;;;11.48;4.70;;;;;;;;;;10315774;28;20107;-60
2021/04/04 21:44:17;;;;;;;14.33;5.00;;;;;;;;;;10307733;28;20083;-61
2021/04/04 21:49:15;;;;;;;13.03;4.67;;;;;;;;;;10310326;28;20075;-58
2021/04/04 21:54:13;;;;;;;7.20;4.00;;;;;;;;;;10304590;28;20061;-61
2021/04/04 21:59:10;;;;;;;13.70;4.75;;;;;;;;;;10303990;28;20284;-61
2021/04/04 22:04:08;;;;;;;8.67;3.70;;;;;;;;;;10310907;28;20044;-59
2021/04/04 22:09:05;;;;;;;18.37;5.07;;;;;;;;;;10315859;28;20085;-59
2021/04/04 22:14:06;;;;;;;11.27;4.87;;;;;;;;;;10309287;28;20033;-61
2021/04/04 22:19:13;;;;;;;10.27;4.28;;;;;;;;;;10312117;28;20056;-58
2021/04/04 22:24:10;;;;;;;12.10;4.40;;;;;;;;;;10304226;28;20044;-61
2021/04/04 22:29:08;;;;;;;9.30;4.07;;;;;;;;;;10289561;28;20028;-60
2021/04/04 22:34:05;;;;;;;13.07;4.60;;;;;;;;;;10306520;28;20033;-59
2021/04/04 22:39:05;;;;;;;11.90;4.20;;;;;;;;;;10301043;28;20035;-59
2021/04/04 22:44:03;;;;;;;13.55;5.65;;;;;;;;;;10315666;28;20041;-59
2021/04/04 22:49:01;;;;;;;12.63;5.18;;;;;;;;;;10290548;28;20036;-61
2021/04/04 22:53:59;;;;;;;15.77;4.68;;;;;;;;;;10307189;28;20030;-60
2021/04/04 22:58:56;;;;;;;13.60;4.03;;;;;;;;;;10315335;28;20159;-61
2021/04/04 23:03:54;;;;;;;7.87;3.40;;;;;;;;;;10317246;28;20038;-62
2021/04/04 23:08:51;;;;;;;7.60;3.60;;;;;;;;;;10314905;28;20033;-60
2021/04/04 23:13:49;;;;;;;10.47;4.20;;;;;;;;;;10302610;28;20029;-59
2021/04/04 23:18:46;;;;;;;6.07;3.77;;;;;;;;;;10312643;28;20447;-61
2021/04/04 23:23:44;;;;;;;12.13;4.60;;;;;;;;;;10317397;28;20037;-61
2021/04/04 23:28:42;;;;;;;;;;;;;;;;;;10292612;28;20116;-62
2021/04/04 23:33:39;;;;;;;9.50;4.75;;;;;;;;;;10324405;28;19931;-60
2021/04/04 23:38:37;;;;;;;10.87;4.63;;;;;;;;;;10304854;28;20623;-59
2021/04/04 23:43:34;;;;;;;12.83;5.63;;;;;;;;;;10305655;28;20127;-57
2021/04/04 23:48:32;;;;;;;17.07;5.73;;;;;;;;;;10303642;28;20048;-60
2021/04/04 23:53:29;;;;;;;14.77;4.57;;;;;;;;;;10275952;28;20083;-58
2021/04/04 23:58:26;;;;;;;15.60;5.07;;;;;;;;;;10289956;28;20025;-58
